Allstedt Airport


Codes: EDBT/
Name: Allstedt Airport
City: Allstedt
Country: Germany
Elevation: 932 ft.

Photos at Allstedt Airport


   Photos courtesy of SpottingLog. You can add your own sightings and photos by signing up for a free trial today.



No photos found.

Weather at Allstedt Airport


Time (UTC)DescriptionTempratureWindCloud coverageVisibilityPressureHumidity
26-Jun-2024 00:00Scattered Clouds17°C7 mph, NE28%10000m1014hPa88%
26-Jun-2024 03:00Few Clouds16°C4 mph, NE19%10000m1014hPa90%
26-Jun-2024 06:00Few Clouds18°C7 mph, NE11%10000m1013hPa82%
26-Jun-2024 09:00Scattered Clouds24°C13 mph, E45%10000m1012hPa64%
26-Jun-2024 12:00Scattered Clouds27°C13 mph, E50%10000m1011hPa53%
26-Jun-2024 15:00Scattered Clouds28°C11 mph, E46%10000m1009hPa52%
26-Jun-2024 18:00Broken Clouds25°C7 mph, NE71%10000m1008hPa68%
26-Jun-2024 21:00Light Rain20°C4 mph, NE89%10000m1010hPa87%
27-Jun-2024 00:00Light Rain19°C4 mph, NE80%10000m1009hPa89%
27-Jun-2024 03:00Overcast Clouds18°C4 mph, NE94%10000m1009hPa90%
27-Jun-2024 06:00Broken Clouds21°C4 mph, E81%10000m1009hPa82%
27-Jun-2024 09:00Broken Clouds25°C4 mph, SE65%10000m1008hPa66%
27-Jun-2024 12:00Scattered Clouds27°C4 mph, SW33%10000m1008hPa56%
27-Jun-2024 15:00Light Rain27°C9 mph, SW48%10000m1008hPa60%
27-Jun-2024 18:00Light Rain24°C4 mph, SW63%10000m1008hPa79%
27-Jun-2024 21:00Light Rain20°C4 mph, W10%10000m1010hPa87%
28-Jun-2024 00:00Clear Sky18°C4 mph, SW10%10000m1010hPa92%
28-Jun-2024 03:00Broken Clouds17°C7 mph, SW58%10000m1011hPa94%
28-Jun-2024 06:00Broken Clouds20°C13 mph, W51%10000m1012hPa86%
28-Jun-2024 09:00Light Rain22°C16 mph, W36%10000m1014hPa75%
28-Jun-2024 12:00Scattered Clouds23°C16 mph, W46%10000m1016hPa51%
28-Jun-2024 15:00Broken Clouds23°C11 mph, W59%10000m1017hPa44%
28-Jun-2024 18:00Broken Clouds21°C2 mph, NW71%10000m1018hPa66%
28-Jun-2024 21:00Clear Sky15°C4 mph, NE1%10000m1020hPa81%
29-Jun-2024 00:00Clear Sky13°C4 mph, NE2%10000m1020hPa87%
29-Jun-2024 03:00Clear Sky12°C4 mph, NE9%10000m1019hPa90%
29-Jun-2024 06:00Clear Sky16°C4 mph, E9%10000m1019hPa74%
29-Jun-2024 09:00Clear Sky21°C7 mph, SE3%10000m1017hPa57%
29-Jun-2024 12:00Few Clouds25°C7 mph, SE16%10000m1014hPa53%
29-Jun-2024 15:00Few Clouds27°C11 mph, E14%10000m1011hPa58%
29-Jun-2024 18:00Light Rain24°C7 mph, E10%10000m1008hPa78%
29-Jun-2024 21:00Light Rain21°C2 mph, E75%10000m1006hPa87%
30-Jun-2024 00:00Light Rain20°C7 mph, NW88%10000m1005hPa95%
30-Jun-2024 03:00Light Rain19°C2 mph, W90%10000m1006hPa96%
30-Jun-2024 06:00Overcast Clouds20°C7 mph, S94%10000m1005hPa90%
30-Jun-2024 09:00Light Rain23°C20 mph, SW23%10000m1006hPa68%
30-Jun-2024 12:00Light Rain21°C20 mph, W54%10000m1007hPa77%
30-Jun-2024 15:00Overcast Clouds19°C16 mph, W100%10000m1008hPa74%
30-Jun-2024 18:00Overcast Clouds16°C7 mph, W100%10000m1009hPa77%
30-Jun-2024 21:00Overcast Clouds13°C4 mph, SW97%10000m1010hPa91%